NJE3TW EBAW-EGLC
Flight info
| Callsign | NJE3TW |
|---|---|
| Flight time | N/A |
| Altitude | 18000 |
| Route | NIK L179 KEGIT/N0467F200 L608 SASKI/N0454F180 L608 SUMUM |
| Aircraft | C750/M-SBDE3FGHRWXY/S |
Departure
| Time | N/A |
|---|---|
| Airport | Antwerp International Airport (Deurne) (EBAW) |
Arrival
| Time | 2026-04-29 18:13 |
|---|---|
| Airport | London City Airport (EGLC) |
| Time | Latitude | Longitude | Altitude | Speed | Heading |
|---|---|---|---|---|---|
| 2026-04-29 17:37 | 51.30370 | 3.55907 | 18248 ft | 432 kts | 291° |
| 2026-04-29 17:37 | 51.31363 | 3.51370 | 18248 ft | 431 kts | 291° |
| 2026-04-29 17:37 | 51.32349 | 3.46843 | 18247 ft | 432 kts | 291° |
| 2026-04-29 17:37 | 51.33333 | 3.42308 | 18246 ft | 432 kts | 291° |
| 2026-04-29 17:38 | 51.34319 | 3.37764 | 18248 ft | 433 kts | 291° |
| 2026-04-29 17:38 | 51.35345 | 3.33252 | 18246 ft | 432 kts | 293° |
| 2026-04-29 17:38 | 51.36432 | 3.28750 | 18251 ft | 435 kts | 293° |
| 2026-04-29 17:38 | 51.37499 | 3.24214 | 18247 ft | 436 kts | 292° |
| 2026-04-29 17:39 | 51.38561 | 3.19689 | 18250 ft | 432 kts | 292° |
| 2026-04-29 17:39 | 51.39628 | 3.15196 | 18253 ft | 432 kts | 293° |
| 2026-04-29 17:39 | 51.40701 | 3.10687 | 18254 ft | 434 kts | 292° |
| 2026-04-29 17:39 | 51.41763 | 3.06173 | 18258 ft | 431 kts | 292° |
| 2026-04-29 17:40 | 51.42814 | 3.01683 | 18252 ft | 431 kts | 292° |
| 2026-04-29 17:40 | 51.43875 | 2.97164 | 18253 ft | 435 kts | 292° |
| 2026-04-29 17:40 | 51.44940 | 2.92627 | 18256 ft | 435 kts | 292° |
| 2026-04-29 17:40 | 51.45996 | 2.88105 | 18254 ft | 432 kts | 292° |
| 2026-04-29 17:41 | 51.47052 | 2.83572 | 18252 ft | 435 kts | 292° |
| 2026-04-29 17:41 | 51.48111 | 2.79021 | 18252 ft | 435 kts | 292° |
| 2026-04-29 17:41 | 51.49150 | 2.74547 | 18252 ft | 434 kts | 292° |
| 2026-04-29 17:41 | 51.50215 | 2.69952 | 18262 ft | 434 kts | 292° |
| 2026-04-29 17:42 | 51.51252 | 2.65470 | 18260 ft | 435 kts | 292° |
| 2026-04-29 17:42 | 51.52303 | 2.60913 | 18261 ft | 436 kts | 292° |
| 2026-04-29 17:42 | 51.53351 | 2.56355 | 18261 ft | 434 kts | 292° |
| 2026-04-29 17:42 | 51.54395 | 2.51815 | 18260 ft | 433 kts | 292° |
| 2026-04-29 17:43 | 51.55439 | 2.47266 | 18247 ft | 435 kts | 292° |
| 2026-04-29 17:43 | 51.56489 | 2.42674 | 18247 ft | 435 kts | 292° |
| 2026-04-29 17:43 | 51.57531 | 2.38112 | 18243 ft | 441 kts | 292° |
| 2026-04-29 17:43 | 51.58594 | 2.33459 | 18250 ft | 442 kts | 291° |
| 2026-04-29 17:44 | 51.59639 | 2.28853 | 18252 ft | 436 kts | 291° |
| 2026-04-29 17:44 | 51.60678 | 2.24271 | 18259 ft | 441 kts | 291° |
| 2026-04-29 17:44 | 51.61729 | 2.19638 | 18264 ft | 436 kts | 291° |
| 2026-04-29 17:44 | 51.62759 | 2.15077 | 18033 ft | 432 kts | 292° |
| 2026-04-29 17:45 | 51.63767 | 2.10600 | 17486 ft | 417 kts | 291° |
| 2026-04-29 17:45 | 51.64736 | 2.06283 | 16941 ft | 405 kts | 292° |
| 2026-04-29 17:45 | 51.65690 | 2.02043 | 16422 ft | 401 kts | 291° |
| 2026-04-29 17:45 | 51.66632 | 1.97839 | 15899 ft | 399 kts | 291° |
| 2026-04-29 17:46 | 51.67575 | 1.93622 | 15374 ft | 401 kts | 291° |
| 2026-04-29 17:46 | 51.68519 | 1.89387 | 14848 ft | 399 kts | 291° |
| 2026-04-29 17:46 | 51.69435 | 1.85267 | 14338 ft | 382 kts | 290° |
| 2026-04-29 17:46 | 51.70312 | 1.81316 | 13841 ft | 366 kts | 290° |
| 2026-04-29 17:47 | 51.71153 | 1.77524 | 13368 ft | 352 kts | 290° |
| 2026-04-29 17:47 | 51.71962 | 1.73873 | 12925 ft | 341 kts | 291° |
| 2026-04-29 17:47 | 51.72744 | 1.70328 | 12492 ft | 330 kts | 290° |
| 2026-04-29 17:47 | 51.73502 | 1.66892 | 12066 ft | 321 kts | 290° |
| 2026-04-29 17:48 | 51.74232 | 1.63525 | 11661 ft | 317 kts | 288° |
| 2026-04-29 17:48 | 51.74597 | 1.60022 | 11243 ft | 319 kts | 272° |
| 2026-04-29 17:48 | 51.74469 | 1.56493 | 10837 ft | 311 kts | 262° |
| 2026-04-29 17:48 | 51.74237 | 1.53050 | 10432 ft | 306 kts | 262° |
| 2026-04-29 17:49 | 51.74012 | 1.49661 | 10010 ft | 301 kts | 259° |
| 2026-04-29 17:49 | 51.73439 | 1.46471 | 9603 ft | 292 kts | 243° |
| 2026-04-29 17:49 | 51.72435 | 1.43693 | 9283 ft | 280 kts | 228° |
| 2026-04-29 17:49 | 51.71156 | 1.41507 | 9264 ft | 258 kts | 213° |
| 2026-04-29 17:50 | 51.69728 | 1.39935 | 9258 ft | 242 kts | 202° |
| 2026-04-29 17:50 | 51.68208 | 1.38817 | 9261 ft | 241 kts | 195° |
| 2026-04-29 17:50 | 51.66661 | 1.37711 | 9266 ft | 245 kts | 198° |
| 2026-04-29 17:50 | 51.65103 | 1.36577 | 9270 ft | 246 kts | 197° |
| 2026-04-29 17:51 | 51.63542 | 1.35450 | 9271 ft | 246 kts | 198° |
| 2026-04-29 17:51 | 51.61980 | 1.34338 | 9278 ft | 246 kts | 197° |
| 2026-04-29 17:51 | 51.60410 | 1.33252 | 9264 ft | 243 kts | 193° |
| 2026-04-29 17:51 | 51.58789 | 1.32731 | 9258 ft | 234 kts | 178° |
| 2026-04-29 17:52 | 51.57185 | 1.32868 | 9257 ft | 229 kts | 164° |
| 2026-04-29 17:52 | 51.56169 | 1.33272 | 9268 ft | 226 kts | 158° |
| 2026-04-29 17:52 | 51.54136 | 1.34155 | 9270 ft | 227 kts | 159° |
| 2026-04-29 17:52 | 51.52604 | 1.34803 | 9267 ft | 229 kts | 159° |
| 2026-04-29 17:53 | 51.51065 | 1.35455 | 9258 ft | 229 kts | 160° |
| 2026-04-29 17:53 | 51.49474 | 1.35753 | 9253 ft | 234 kts | 174° |
| 2026-04-29 17:53 | 51.47843 | 1.35571 | 9254 ft | 234 kts | 177° |
| 2026-04-29 17:53 | 51.46219 | 1.35394 | 9253 ft | 234 kts | 178° |
| 2026-04-29 17:54 | 51.44588 | 1.35220 | 9254 ft | 235 kts | 178° |
| 2026-04-29 17:54 | 51.42953 | 1.35044 | 9257 ft | 236 kts | 177° |
| 2026-04-29 17:54 | 51.41313 | 1.34763 | 9242 ft | 240 kts | 187° |
| 2026-04-29 17:54 | 51.39722 | 1.33856 | 9232 ft | 243 kts | 199° |
| 2026-04-29 17:55 | 51.38276 | 1.32393 | 8833 ft | 253 kts | 215° |
| 2026-04-29 17:55 | 51.37101 | 1.30283 | 8523 ft | 256 kts | 231° |
| 2026-04-29 17:55 | 51.36318 | 1.27697 | 8174 ft | 261 kts | 251° |
| 2026-04-29 17:55 | 51.36322 | 1.24786 | 7819 ft | 264 kts | 283° |
| 2026-04-29 17:56 | 51.36864 | 1.22022 | 7571 ft | 259 kts | 291° |
| 2026-04-29 17:56 | 51.37474 | 1.19292 | 7252 ft | 259 kts | 290° |
| 2026-04-29 17:56 | 51.37984 | 1.16579 | 7243 ft | 253 kts | 287° |
| 2026-04-29 17:56 | 51.38453 | 1.13847 | 7241 ft | 258 kts | 287° |
| 2026-04-29 17:57 | 51.38946 | 1.11090 | 7253 ft | 261 kts | 287° |
| 2026-04-29 17:57 | 51.39452 | 1.08319 | 7246 ft | 259 kts | 288° |
| 2026-04-29 17:57 | 51.39955 | 1.05550 | 7246 ft | 259 kts | 287° |
| 2026-04-29 17:57 | 51.40292 | 1.03678 | 7248 ft | 258 kts | 287° |
| 2026-04-29 17:58 | 51.40947 | 1.00033 | 7247 ft | 256 kts | 287° |
| 2026-04-29 17:58 | 51.41439 | 0.97294 | 7246 ft | 256 kts | 287° |
| 2026-04-29 17:58 | 51.41932 | 0.94553 | 7247 ft | 258 kts | 287° |
| 2026-04-29 17:58 | 51.42434 | 0.91751 | 7262 ft | 265 kts | 287° |
| 2026-04-29 17:59 | 51.42943 | 0.88902 | 7263 ft | 266 kts | 287° |
| 2026-04-29 17:59 | 51.43451 | 0.86057 | 7270 ft | 265 kts | 287° |
| 2026-04-29 17:59 | 51.43955 | 0.83235 | 7268 ft | 263 kts | 287° |
| 2026-04-29 17:59 | 51.44453 | 0.80438 | 7258 ft | 260 kts | 287° |
| 2026-04-29 18:00 | 51.44949 | 0.77644 | 7254 ft | 261 kts | 287° |
| 2026-04-29 18:00 | 51.45447 | 0.74839 | 7262 ft | 264 kts | 287° |
| 2026-04-29 18:00 | 51.45955 | 0.71976 | 7221 ft | 270 kts | 287° |
| 2026-04-29 18:00 | 51.46471 | 0.69060 | 6955 ft | 272 kts | 287° |
| 2026-04-29 18:01 | 51.46987 | 0.66133 | 6609 ft | 272 kts | 287° |
| 2026-04-29 18:01 | 51.47503 | 0.63213 | 6236 ft | 272 kts | 287° |
| 2026-04-29 18:01 | 51.48017 | 0.60295 | 5875 ft | 272 kts | 287° |
| 2026-04-29 18:01 | 51.48528 | 0.57387 | 5516 ft | 271 kts | 287° |
| 2026-04-29 18:02 | 51.48896 | 0.54442 | 5149 ft | 270 kts | 273° |
| 2026-04-29 18:02 | 51.48973 | 0.51434 | 4792 ft | 269 kts | 272° |
| 2026-04-29 18:02 | 51.49019 | 0.48447 | 4427 ft | 267 kts | 264° |
| 2026-04-29 18:02 | 51.48581 | 0.45604 | 4264 ft | 255 kts | 245° |
| 2026-04-29 18:03 | 51.47783 | 0.43171 | 4248 ft | 242 kts | 234° |
| 2026-04-29 18:03 | 51.46925 | 0.40844 | 4248 ft | 244 kts | 235° |
| 2026-04-29 18:03 | 51.46064 | 0.38474 | 4250 ft | 247 kts | 235° |
| 2026-04-29 18:03 | 51.45191 | 0.36090 | 4254 ft | 249 kts | 235° |
| 2026-04-29 18:04 | 51.44314 | 0.33707 | 4256 ft | 247 kts | 234° |
| 2026-04-29 18:04 | 51.43498 | 0.31281 | 4251 ft | 249 kts | 245° |
| 2026-04-29 18:04 | 51.43129 | 0.28561 | 4250 ft | 250 kts | 264° |
| 2026-04-29 18:04 | 51.43187 | 0.25840 | 4250 ft | 239 kts | 274° |
| 2026-04-29 18:05 | 51.43280 | 0.23246 | 4248 ft | 228 kts | 272° |
| 2026-04-29 18:05 | 51.43356 | 0.20748 | 4251 ft | 223 kts | 272° |
| 2026-04-29 18:05 | 51.43436 | 0.18250 | 4258 ft | 226 kts | 273° |
| 2026-04-29 18:05 | 51.43522 | 0.15723 | 4264 ft | 228 kts | 272° |
| 2026-04-29 18:06 | 51.43605 | 0.13178 | 4267 ft | 229 kts | 272° |
| 2026-04-29 18:06 | 51.43687 | 0.10640 | 4269 ft | 227 kts | 272° |
| 2026-04-29 18:06 | 51.43767 | 0.08137 | 4236 ft | 224 kts | 272° |
| 2026-04-29 18:06 | 51.43847 | 0.05628 | 4010 ft | 226 kts | 272° |
| 2026-04-29 18:07 | 51.43927 | 0.03120 | 3849 ft | 225 kts | 272° |
| 2026-04-29 18:07 | 51.44006 | 0.00614 | 3653 ft | 226 kts | 272° |
| 2026-04-29 18:07 | 51.44084 | -0.01904 | 3457 ft | 226 kts | 272° |
| 2026-04-29 18:07 | 51.44162 | -0.04445 | 3201 ft | 231 kts | 274° |
| 2026-04-29 18:08 | 51.44346 | -0.06969 | 3011 ft | 227 kts | 291° |
| 2026-04-29 18:08 | 51.45083 | -0.09163 | 2814 ft | 221 kts | 315° |
| 2026-04-29 18:08 | 51.46206 | -0.10738 | 2649 ft | 209 kts | 339° |
| 2026-04-29 18:08 | 51.46446 | -0.10951 | 2628 ft | 206 kts | 343° |
| 2026-04-29 18:09 | 51.46831 | -0.11231 | 2585 ft | 202 kts | 349° |
| 2026-04-29 18:09 | 51.48146 | -0.11649 | 2454 ft | 184 kts | 14° |
| 2026-04-29 18:09 | 51.49231 | -0.11248 | 2397 ft | 125 kts | 36° |
| 2026-04-29 18:09 | 51.49870 | -0.10619 | 2086 ft | 98 kts | 50° |
| 2026-04-29 18:10 | 51.50338 | -0.09835 | 2151 ft | 105 kts | 59° |
| 2026-04-29 18:10 | 51.50708 | -0.08825 | 2243 ft | 106 kts | 71° |
| 2026-04-29 18:10 | 51.50841 | -0.07671 | 2235 ft | 107 kts | 90° |
| 2026-04-29 18:10 | 51.50851 | -0.06458 | 2243 ft | 108 kts | 88° |
| 2026-04-29 18:11 | 51.50837 | -0.05254 | 2237 ft | 107 kts | 89° |
| 2026-04-29 18:11 | 51.50814 | -0.04020 | 1960 ft | 111 kts | 89° |
| 2026-04-29 18:11 | 51.50787 | -0.02805 | 1687 ft | 107 kts | 89° |
| 2026-04-29 18:11 | 51.50749 | -0.01607 | 1409 ft | 115 kts | 89° |
| 2026-04-29 18:12 | 51.50710 | -0.00299 | 1176 ft | 115 kts | 92° |
| 2026-04-29 18:12 | 51.50679 | 0.00532 | 944 ft | 112 kts | 89° |
| 2026-04-29 18:12 | 51.50632 | 0.01800 | 658 ft | 113 kts | 90° |
| 2026-04-29 18:12 | 51.50613 | 0.02999 | 341 ft | 99 kts | 89° |
| 2026-04-29 18:13 | 51.50569 | 0.04062 | 139 ft | 95 kts | 89° |
| 2026-04-29 18:13 | 51.50537 | 0.05074 | 27 ft | 80 kts | 89° |
| 2026-04-29 18:13 | 51.50522 | 0.05658 | 16 ft | 34 kts | 94° |
| 2026-04-29 18:13 | 51.50515 | 0.05982 | 16 ft | 24 kts | 92° |
| 2026-04-29 18:14 | 51.50509 | 0.06134 | 18 ft | 16 kts | 97° |
| 2026-04-29 18:14 | 51.50490 | 0.06362 | 25 ft | 15 kts | 126° |
| 2026-04-29 18:14 | 51.50479 | 0.06355 | 23 ft | 5 kts | 239° |
| 2026-04-29 18:14 | 51.50438 | 0.06357 | 22 ft | 3 kts | 162° |
| 2026-04-29 18:15 | 51.50435 | 0.06328 | 24 ft | 5 kts | 323° |
| 2026-04-29 18:15 | 51.50508 | 0.06398 | 22 ft | 20 kts | 79° |
| 2026-04-29 18:15 | 51.50503 | 0.06469 | 24 ft | 19 kts | 105° |
| 2026-04-29 18:16 | 51.50463 | 0.06592 | 23 ft | 6 kts | 176° |
| 2026-04-29 18:16 | 51.50415 | 0.06546 | 21 ft | 9 kts | 268° |
| 2026-04-29 18:16 | 51.50420 | 0.06407 | 21 ft | 16 kts | 274° |
| 2026-04-29 18:17 | 51.50495 | 0.06288 | 21 ft | 17 kts | 296° |
| 2026-04-29 18:17 | 51.50506 | 0.06060 | 16 ft | 24 kts | 272° |
| 2026-04-29 18:17 | 51.50517 | 0.05771 | 17 ft | 28 kts | 272° |
| 2026-04-29 18:17 | 51.50525 | 0.05446 | 19 ft | 30 kts | 272° |
| 2026-04-29 18:18 | 51.50518 | 0.05367 | 20 ft | 3 kts | 234° |
| 2026-04-29 18:18 | 51.50487 | 0.05312 | 22 ft | 10 kts | 227° |
| 2026-04-29 18:18 | 51.50449 | 0.05227 | 23 ft | 0 kts | 250° |
| 2026-04-29 18:18 | 51.50438 | 0.05214 | 22 ft | 6 kts | 197° |
| 2026-04-29 18:19 | 51.50406 | 0.05212 | 21 ft | 0 kts | 180° |